• Join FlightAware (Why Join?)
  • Login
  • US Flag 
04:56PM EST


 

Airport Tracker/Info


-or-


 

Live Flight TrackerFlight Track Log ✈ CES5192 ✈ 17-Jul-2014 ✈ ZBYC / YCU - ZSPD / PVG

Flight Track Log - Related Links

Times and Time Zones

All times are in EDT time to prevent confusion due to time zone crossing. See the CES5192 flight status page for this flight to view local times or setup timezone preferences in your user account.

Time Position Orientation Groundspeed Altitude Reporting Facility
EDT Latitude Longitude Course Direction KTS MPH feet Rate Location/Type
03:54AM 32.7958 117.8020 111° Southeast  Level Estimated
03:55AM 32.7491 117.9213 115° Southeast  Level Estimated
03:56AM 32.7022 118.0404 115° Southeast  Level Estimated
03:57AM 32.6553 118.1594 115° Southeast  Level Estimated
03:58AM 32.6082 118.2783 115° Southeast  Level Estimated
03:59AM 32.5610 118.3970 115° Southeast  Level Estimated
04:00AM 32.5137 118.5156 115° Southeast  Level Estimated
04:01AM 32.4663 118.6341 115° Southeast  Level Estimated
04:02AM 32.4188 118.7525 115° Southeast  Level Estimated
04:03AM 32.3711 118.8708 115° Southeast  Level Estimated
04:04AM 32.3234 118.9889 116° Southeast  Level Estimated
04:05AM 32.2755 119.1069 116° Southeast  Level Estimated
04:06AM 32.2276 119.2248 116° Southeast  Level Estimated
04:07AM 32.1795 119.3425 116° Southeast  Level Estimated
04:08AM 32.1313 119.4601 116° Southeast  Level Estimated
04:09AM 32.0830 119.5776 116° Southeast  Level Estimated
04:10AM 32.0346 119.6950 116° Southeast  Level Estimated
04:11AM 31.9861 119.8123 116° Southeast  Level Estimated
04:12AM 31.9375 119.9294 116° Southeast  Level Estimated
04:13AM 31.8888 120.0464 116° Southeast  Level Estimated
04:14AM 31.8400 120.1633 116° Southeast  Level Estimated
04:15AM 31.7910 120.2800 116° Southeast  Level Estimated
04:16AM 31.7420 120.3967 116° Southeast  Level Estimated
04:17AM 31.6928 120.5132 116° Southeast  Level Estimated
04:18AM 31.6436 120.6296 116° Southeast  Level Estimated
04:19AM 31.5942 120.7458 116° Southeast  Level Estimated
04:20AM 31.5448 120.8620 117° Southeast  Level Estimated
04:21AM 31.4952 120.9780 117° Southeast  Level Estimated
04:22AM 31.4455 121.0939 117° Southeast  Level Estimated
04:22AM 31.4981 120.6291 109° East 455 524 19,600  Level FlightAware ADS-B (ZSSS / SHA)
04:22AM 31.4756 120.7040 109° East 450 518 19,000 -1,320 Descending FlightAware ADS-B (ZSSS / SHA)
04:23AM 31.4547 120.7734 109° East 447 514 18,300 -1,440 Descending FlightAware ADS-B (ZSSS / SHA)
04:24AM 31.4318 120.8494 110° East 439 505 17,400 -1,560 Descending FlightAware ADS-B
04:24AM 31.4267 120.8661 109° East 438 504 17,200 -2,340 Descending FlightAware ADS-B (ZSSS / SHA)
04:24AM 31.4033 120.9429 109° East 425 489 15,900 -2,340 Descending FlightAware ADS-B (ZSSS / SHA)
04:24AM 31.4023 120.9462 110° East 426 490 15,800 -2,640 Descending FlightAware ADS-B
04:25AM 31.3837 121.0071 109° East 420 483 14,600 -2,220 Descending FlightAware ADS-B (ZSSS / SHA)
04:25AM 31.3727 121.0430 110° East 406 467 14,100 -1,440 Descending FlightAware ADS-B
04:25AM 31.3655 121.0665 109° East 394 453 13,900 -1,800 Descending FlightAware ADS-B (ZSSS / SHA)
04:26AM 31.3545 121.1026 110° East 385 443 13,200 -2,760 Descending FlightAware ADS-B
04:26AM 31.3464 121.1290 109° East 388 447 12,500 -3,000 Descending FlightAware ADS-B (ZSSS / SHA)
04:26AM 31.3370 121.1604 109° East 386 444 11,700 -1,920 Descending FlightAware ADS-B
04:26AM 31.3306 121.1816 109° East 379 436 11,600 -840 Descending FlightAware ADS-B (ZSSS / SHA)
04:27AM 31.3203 121.2157 109° East 358 412 11,300 -1,020 Descending FlightAware ADS-B
04:27AM 31.3122 121.2425 109° East 347 399 11,100 -840 Descending FlightAware ADS-B (ZSSS / SHA)
04:27AM 31.3032 121.2725 109° East 333 383 10,900 -600 Descending FlightAware ADS-B
04:27AM 31.2972 121.2924 109° East 323 372 10,800 -840 Descending FlightAware ADS-B (ZSSS / SHA)
04:28AM 31.2893 121.3195 105° East 313 360 10,500 -1,200 Descending FlightAware ADS-B
04:28AM 31.2874 121.3344 105° East 314 361 10,200 -1,620 Descending FlightAware ADS-B (ZSSS / SHA)
04:28AM 31.2878 121.3452 83° East 316 364 10,100 -2,040 Descending FlightAware ADS-B
04:28AM 31.2885 121.3521 82° East 317 365 10,000 -2,040 Descending FlightAware ADS-B (ZSSS / SHA)
04:28AM 31.2913 121.3698 78° East 319 367 9,600 -1,920 Descending FlightAware ADS-B
04:28AM 31.2964 121.3928 73° East 317 365 9,100 -2,280 Descending FlightAware ADS-B
04:28AM 31.2988 121.4019 72° East 316 364 9,000 -2,040 Descending FlightAware ADS-B (ZSSS / SHA)
04:29AM 31.3036 121.4199 73° East 315 362 8,600 -2,280 Descending FlightAware ADS-B
04:29AM 31.3114 121.4486 72° East 308 354 7,900 -2,700 Descending FlightAware ADS-B (ZSSS / SHA)
04:29AM 31.3158 121.4648 73° East 307 353 7,300 -2,820 Descending FlightAware ADS-B
04:29AM 31.3180 121.4732 72° East 307 353 7,200 -2,580 Descending FlightAware ADS-B (ZSSS / SHA)
04:29AM 31.3263 121.5052 73° East 302 348 6,400 -2,760 Descending FlightAware ADS-B (ZSSS / SHA)
04:29AM 31.3265 121.5059 74° East 299 344 6,100 -1,740 Descending FlightAware ADS-B
04:30AM 31.3311 121.5241 73° East 298 343 6,000 -600 Descending FlightAware ADS-B (ZSSS / SHA)
04:30AM 31.3352 121.5399 73° East 284 327 5,900 -720 Descending FlightAware ADS-B
04:30AM 31.3401 121.5593 73° East 268 308 5,700 -840 Descending FlightAware ADS-B
04:30AM 31.3461 121.5804 70° East 255 293 5,500 -840 Descending FlightAware ADS-B
04:31AM 31.3762 121.6525 68° East 207 238 4,600 -780 Descending FlightAware ADS-B
04:32AM 31.3558 121.7007 136° Southeast 190 219 4,000 -960 Descending FlightAware ADS-B (ZSSL)
04:33AM 31.3424 121.7115 156° South 196 226 3,500 -1,320 Descending FlightAware ADS-B (ZSSL)
04:33AM 31.3294 121.7170 161° South 192 221 3,300 -600 Descending FlightAware ADS-B (ZSSL)
04:33AM 31.3171 121.7218 161° South 191 220 3,200 -660 Descending FlightAware ADS-B (ZSSL)
04:33AM 31.3044 121.7267 161° South 196 226 3,000 -960 Descending FlightAware ADS-B (ZSSL)
04:33AM 31.2995 121.7286 162° South 193 222 2,800 -840 Descending FlightAware ADS-B
04:34AM 31.2922 121.7314 161° South 191 220 2,800 -720 Level FlightAware ADS-B (ZSSL)
04:34AM 31.2800 121.7359 162° South 188 216 2,600 -1,080 Descending FlightAware ADS-B (ZSSL)
04:34AM 31.2634 121.7422 162° South 181 208 2,200 -900 Descending FlightAware ADS-B (ZSSL)
04:34AM 31.2476 121.7482 161° South 164 189 2,000 -780 Descending FlightAware ADS-B (ZSSL)
04:35AM 31.2342 121.7533 161° South 160 184 1,700 -960 Descending FlightAware ADS-B (ZSSL)
04:35AM 31.2267 121.7561 161° South 134 154 1,500 -600 Descending FlightAware ADS-B (ZSSL)
04:35AM 31.2169 121.7599 161° South 132 152 1,400 -600 Descending FlightAware ADS-B (ZSSL)
04:36AM 31.2088 121.7629 162° South 131 151 1,200 -780 Descending FlightAware ADS-B (ZSSL)
04:36AM 31.1935 121.7686 162° South 129 148 900 -600 Descending FlightAware ADS-B (ZSSL)
04:36AM 31.1805 121.7736 162° South 130 150 700 -600 Descending FlightAware ADS-B (ZSSL)
04:37AM 31.1703 121.7774 161° South 129 148 500 -780 Descending FlightAware ADS-B (ZSSL)
04:39AM 31.1428 121.7924 155° Southeast  Level Estimated
04:40AM 31.1428 121.7924 North  Level Estimated
04:41AM 31.1428 121.7924 North  Level Estimated
04:42AM 31.1428 121.7924 North  Level Estimated
04:43AM 31.1428 121.7924 North  Level Estimated
04:44AM 31.1428 121.7924 North  Level Estimated